Terminal Aerodrome Forecast
Issued by NWS

Home | Current Version | Previous Version | Text Only | Print | Product List | Glossary On
Versions: 1 2 3 4 5 6 7 8 9 10 11 12 13 14 15 16 17 18 19 20 21 22
741
FTUS43 KDVN 240220 AAA
TAFBRL
TAF AMD
KBRL 240220Z 2402/2424 30013G20KT P6SM BKN060
     FM241000 32017G25KT P6SM VCSH OVC035
     FM241600 32018G28KT P6SM BKN040=

USA.gov is the U.S. government's official web portal to all federal, state and local government web resources and services.